createdAt,value
2018-10-12T00:02:21.723Z,42.68
2018-10-12T00:04:53.447Z,42.74
2018-10-12T00:07:23.946Z,42.99
2018-10-12T00:09:54.353Z,43.00
2018-10-12T00:12:24.702Z,42.72
2018-10-12T00:14:54.994Z,42.57
2018-10-12T00:17:25.330Z,43.03
2018-10-12T00:19:55.670Z,42.84
2018-10-12T00:22:25.974Z,42.99
2018-10-12T00:24:56.293Z,43.19
2018-10-12T00:27:26.634Z,42.43
2018-10-12T00:29:57.043Z,43.05
2018-10-12T00:32:27.454Z,42.40
2018-10-12T00:34:57.846Z,42.57
2018-10-12T00:37:28.192Z,43.06
2018-10-12T00:39:58.542Z,42.67
2018-10-12T00:42:28.890Z,42.60
2018-10-12T00:44:59.222Z,42.48
2018-10-12T00:47:29.542Z,42.81
2018-10-12T00:50:01.082Z,42.52
2018-10-12T00:52:31.439Z,43.08
2018-10-12T00:55:01.728Z,42.99
2018-10-12T00:57:32.747Z,42.85
2018-10-12T01:00:03.118Z,42.62
2018-10-12T01:02:33.508Z,42.63
2018-10-12T01:05:03.859Z,42.62
2018-10-12T01:07:34.294Z,42.94
2018-10-12T01:10:04.615Z,43.06
2018-10-12T01:12:36.478Z,42.45
2018-10-12T01:15:07.808Z,42.49
2018-10-12T01:17:38.563Z,42.20
2018-10-12T01:20:09.646Z,42.56
2018-10-12T01:22:40.105Z,42.55
2018-10-12T01:25:10.743Z,42.60
2018-10-12T01:27:41.074Z,42.93
2018-10-12T01:30:11.397Z,42.96
2018-10-12T01:32:47.614Z,42.54
2018-10-12T01:35:17.978Z,42.65
2018-10-12T01:37:48.343Z,42.80
2018-10-12T01:40:18.607Z,42.34
2018-10-12T01:42:48.874Z,43.02
2018-10-12T01:45:19.192Z,42.60
2018-10-12T01:47:49.466Z,42.85
2018-10-12T01:50:19.894Z,42.46
2018-10-12T01:52:50.323Z,42.88
2018-10-12T01:55:20.586Z,42.90
2018-10-12T01:57:50.946Z,42.92
2018-10-12T02:00:21.275Z,42.54
2018-10-12T02:02:51.582Z,42.92
2018-10-12T02:05:21.914Z,42.90
2018-10-12T02:07:52.238Z,42.47
2018-10-12T02:10:22.510Z,42.68
2018-10-12T02:12:52.778Z,42.52
2018-10-12T02:15:23.018Z,42.86
2018-10-12T02:17:53.300Z,42.88
2018-10-12T02:20:23.534Z,42.69
2018-10-12T02:22:53.814Z,42.99
2018-10-12T02:25:24.074Z,42.37
2018-10-12T02:27:54.384Z,42.41
2018-10-12T02:30:24.814Z,43.10
2018-10-12T02:32:55.082Z,43.03
2018-10-12T02:35:25.385Z,42.56
2018-10-12T02:37:55.643Z,42.87
2018-10-12T02:40:25.919Z,42.93
2018-10-12T02:42:56.241Z,42.30
2018-10-12T02:45:26.595Z,42.92
2018-10-12T02:47:57.046Z,43.14
2018-10-12T02:50:29.030Z,42.65
2018-10-12T02:52:59.386Z,42.93
2018-10-12T02:55:29.750Z,42.88
2018-10-12T02:58:00.035Z,43.06
2018-10-12T03:00:30.847Z,42.48
2018-10-12T03:03:01.106Z,42.66
2018-10-12T03:05:31.430Z,42.62
2018-10-12T03:08:02.311Z,42.91
2018-10-12T03:10:32.596Z,43.11
2018-10-12T03:13:02.902Z,42.52
2018-10-12T03:15:33.495Z,43.06
2018-10-12T03:18:03.766Z,42.70
2018-10-12T03:20:34.096Z,42.83
2018-10-12T03:23:04.346Z,43.06
2018-10-12T03:25:34.718Z,42.91
2018-10-12T03:28:26.239Z,42.41
2018-10-12T03:30:57.163Z,42.50
2018-10-12T03:33:28.877Z,42.70
2018-10-12T03:35:59.539Z,42.55
2018-10-12T03:38:29.840Z,43.04
2018-10-12T03:41:00.199Z,42.78
2018-10-12T03:43:30.871Z,42.70
2018-10-12T03:46:01.194Z,43.04
2018-10-12T03:48:31.449Z,42.77
2018-10-12T03:51:01.755Z,43.22
2018-10-12T03:53:32.168Z,42.65
2018-10-12T03:56:02.432Z,42.91
2018-10-12T03:58:32.719Z,42.68
2018-10-12T04:01:03.046Z,42.81
2018-10-12T04:03:33.414Z,43.09
2018-10-12T04:06:03.825Z,43.03
2018-10-12T04:08:34.107Z,42.56
2018-10-12T04:11:04.367Z,42.98
2018-10-12T04:13:34.662Z,43.06
2018-10-12T04:16:04.994Z,42.91
2018-10-12T04:18:35.306Z,42.93
2018-10-12T04:21:05.567Z,42.69
2018-10-12T04:23:36.288Z,42.67
2018-10-12T04:26:06.630Z,42.75
2018-10-12T04:28:37.895Z,42.42
2018-10-12T04:31:08.155Z,43.04
2018-10-12T04:33:38.490Z,43.16
2018-10-12T04:36:09.042Z,43.08
2018-10-12T04:41:19.648Z,42.65
2018-10-12T04:43:54.402Z,42.65
2018-10-12T04:46:36.504Z,42.87
2018-10-12T04:49:09.767Z,43.10
2018-10-12T04:51:52.587Z,42.62
2018-10-12T04:54:23.063Z,42.86
2018-10-12T04:56:53.654Z,42.73
2018-10-12T04:59:23.956Z,42.82
2018-10-12T05:01:54.328Z,42.68
2018-10-12T05:04:24.594Z,43.08
2018-10-12T05:06:54.851Z,43.06
2018-10-12T05:09:25.130Z,42.73
2018-10-12T05:11:55.458Z,43.22
2018-10-12T05:14:25.880Z,42.75
2018-10-12T05:16:56.660Z,42.87
2018-10-12T05:19:28.378Z,42.55
2018-10-12T05:21:58.738Z,42.49
2018-10-12T05:24:28.983Z,42.59
2018-10-12T05:26:59.317Z,43.33
2018-10-12T05:29:29.579Z,43.23
2018-10-12T05:31:59.871Z,43.05
2018-10-12T05:34:30.235Z,42.66
2018-10-12T05:37:01.135Z,42.72
2018-10-12T05:39:31.499Z,43.08
2018-10-12T05:42:01.751Z,43.18
2018-10-12T05:44:32.088Z,42.50
2018-10-12T05:47:02.407Z,43.12
2018-10-12T05:50:03.411Z,43.06
2018-10-12T05:52:35.115Z,42.77
2018-10-12T05:55:05.383Z,42.87
2018-10-12T05:57:40.490Z,42.47
2018-10-12T06:00:12.039Z,42.69
2018-10-12T06:02:42.362Z,43.17
2018-10-12T06:05:12.706Z,42.63
2018-10-12T06:07:42.967Z,42.85
2018-10-12T06:10:13.263Z,42.87
2018-10-12T06:12:43.527Z,43.14
2018-10-12T06:15:13.768Z,42.97
2018-10-12T06:17:44.043Z,42.69
2018-10-12T06:20:14.510Z,42.53
2018-10-12T06:22:44.911Z,42.35
2018-10-12T06:25:15.170Z,42.36
2018-10-12T06:27:45.431Z,43.07
2018-10-12T06:30:15.691Z,42.42
2018-10-12T06:32:46.196Z,42.37
2018-10-12T06:35:16.500Z,42.81
2018-10-12T06:37:46.843Z,42.39
2018-10-12T06:40:17.099Z,42.28
2018-10-12T06:42:47.371Z,42.72
2018-10-12T06:45:17.615Z,42.56
2018-10-12T06:47:47.870Z,42.64
2018-10-12T06:50:18.250Z,42.82
2018-10-12T06:52:48.594Z,42.67
2018-10-12T06:55:18.910Z,42.84
2018-10-12T06:57:49.174Z,42.67
2018-10-12T07:00:19.420Z,42.07
2018-10-12T07:02:49.826Z,41.95
2018-10-12T07:05:20.255Z,42.03
2018-10-12T07:07:50.650Z,42.29
2018-10-12T07:10:20.895Z,42.56
2018-10-12T07:12:51.189Z,42.50
2018-10-12T07:15:21.459Z,42.37
2018-10-12T07:17:51.718Z,41.98
2018-10-12T07:20:21.994Z,42.23
2018-10-12T07:22:52.268Z,42.19
2018-10-12T07:25:22.510Z,41.96
2018-10-12T07:27:53.031Z,41.90
2018-10-12T07:30:23.278Z,42.33
2018-10-12T07:32:53.563Z,41.79
2018-10-12T07:35:23.892Z,42.04
2018-10-12T07:37:54.250Z,41.93
2018-10-12T07:40:24.499Z,41.51
2018-10-12T07:42:55.035Z,42.05
2018-10-12T07:45:25.302Z,42.09
2018-10-12T07:47:55.684Z,42.41
2018-10-12T07:50:25.905Z,41.46
2018-10-12T07:52:56.187Z,41.56
2018-10-12T07:55:26.512Z,42.29
2018-10-12T07:57:56.783Z,42.04
2018-10-12T08:00:27.209Z,42.02
2018-10-12T08:02:57.500Z,41.37
2018-10-12T08:05:27.846Z,41.70
2018-10-12T08:07:58.171Z,41.54
2018-10-12T08:10:28.593Z,41.66
2018-10-12T08:12:58.886Z,42.00
2018-10-12T08:15:29.223Z,42.21
2018-10-12T08:17:59.525Z,42.13
2018-10-12T08:20:29.927Z,41.65
2018-10-12T08:23:00.606Z,42.17
2018-10-12T08:25:30.955Z,41.50
2018-10-12T08:28:01.216Z,41.36
2018-10-12T08:30:32.099Z,41.62
2018-10-12T08:33:02.570Z,41.36
2018-10-12T08:35:32.875Z,42.02
2018-10-12T08:38:03.254Z,41.57
2018-10-12T08:40:33.507Z,41.74
2018-10-12T08:43:03.882Z,41.87
2018-10-12T08:45:34.262Z,41.44
2018-10-12T08:48:04.479Z,41.16
2018-10-12T08:50:35.983Z,41.74
2018-10-12T08:53:06.339Z,41.28
2018-10-12T08:55:36.678Z,41.38
2018-10-12T08:58:06.967Z,41.49
2018-10-12T09:00:37.300Z,41.78
2018-10-12T09:03:07.840Z,41.99
2018-10-12T09:05:38.183Z,41.77
2018-10-12T09:08:08.505Z,41.63
2018-10-12T09:10:38.807Z,42.02
2018-10-12T09:13:09.119Z,41.33
2018-10-12T09:15:39.515Z,41.29
2018-10-12T09:18:09.870Z,41.25
2018-10-12T09:20:40.273Z,41.79
2018-10-12T09:23:10.546Z,41.38
2018-10-12T09:25:40.869Z,41.54
2018-10-12T09:28:11.198Z,41.93
2018-10-12T09:30:41.759Z,41.40
2018-10-12T09:33:12.015Z,41.17
2018-10-12T09:35:42.354Z,41.32
2018-10-12T09:38:12.599Z,40.95
2018-10-12T09:40:42.871Z,41.02
2018-10-12T09:43:13.116Z,40.90
2018-10-12T09:45:43.444Z,41.33
2018-10-12T09:48:13.675Z,40.94
2018-10-12T09:50:44.039Z,41.05
2018-10-12T09:53:14.307Z,41.33
2018-10-12T09:55:44.661Z,40.85
2018-10-12T09:58:14.859Z,41.63
2018-10-12T10:00:50.385Z,40.88
2018-10-12T10:03:25.935Z,40.96
2018-10-12T10:05:56.344Z,41.37
2018-10-12T10:08:26.807Z,41.25
2018-10-12T10:10:56.995Z,41.36
2018-10-12T10:13:27.352Z,40.82
2018-10-12T10:15:57.718Z,41.05
2018-10-12T10:18:27.983Z,40.82
2018-10-12T10:20:58.235Z,41.06
2018-10-12T10:23:28.659Z,40.57
2018-10-12T10:25:59.262Z,40.47
2018-10-12T10:28:29.686Z,40.10
2018-10-12T10:31:00.062Z,40.28
2018-10-12T10:33:30.378Z,40.49
2018-10-12T10:36:01.640Z,39.89
2018-10-12T10:38:31.610Z,39.90
2018-10-12T10:41:02.040Z,40.57
2018-10-12T10:43:32.375Z,40.56
2018-10-12T10:46:02.772Z,40.44
2018-10-12T10:48:39.735Z,40.39
2018-10-12T10:51:10.218Z,40.39
2018-10-12T10:53:40.993Z,40.48
2018-10-12T10:56:11.414Z,39.90
2018-10-12T10:58:41.663Z,40.17
2018-10-12T11:01:11.936Z,40.65
2018-10-12T11:03:42.311Z,40.37
2018-10-12T11:06:12.700Z,40.20
2018-10-12T11:08:42.995Z,39.70
2018-10-12T11:11:13.318Z,39.61
2018-10-12T11:13:43.675Z,39.95
2018-10-12T11:16:14.032Z,40.31
2018-10-12T11:18:44.584Z,39.81
2018-10-12T11:21:14.986Z,39.71
2018-10-12T11:23:45.375Z,39.96
2018-10-12T11:26:15.892Z,39.56
2018-10-12T11:28:46.604Z,39.55
2018-10-12T11:31:17.367Z,40.17
2018-10-12T11:33:47.798Z,40.14
2018-10-12T11:36:18.123Z,39.66
2018-10-12T11:38:48.463Z,39.64
2018-10-12T11:41:18.891Z,39.55
2018-10-12T11:43:49.698Z,39.75
2018-10-12T11:46:20.406Z,39.04
2018-10-12T11:48:51.057Z,39.34
2018-10-12T11:51:21.751Z,39.28
2018-10-12T11:53:52.433Z,39.61
2018-10-12T11:56:22.783Z,39.03
2018-10-12T11:58:53.163Z,39.10
2018-10-12T12:01:23.420Z,38.93
2018-10-12T12:03:53.693Z,39.66
2018-10-12T12:06:23.970Z,39.40
2018-10-12T12:08:54.275Z,39.17
2018-10-12T12:11:24.604Z,39.28
2018-10-12T12:13:55.020Z,38.74
2018-10-12T12:16:25.810Z,39.27
2018-10-12T12:18:56.104Z,38.74
2018-10-12T12:21:26.434Z,39.22
2018-10-12T12:23:56.757Z,39.43
2018-10-12T12:26:27.013Z,38.66
2018-10-12T12:28:57.290Z,38.57
2018-10-12T12:31:27.695Z,38.75
2018-10-12T12:33:57.972Z,38.82
2018-10-12T12:36:28.262Z,38.93
2018-10-12T12:38:58.514Z,38.87
2018-10-12T12:41:28.820Z,38.30
2018-10-12T12:43:59.147Z,37.92
2018-10-12T12:46:29.510Z,37.84
2018-10-12T12:49:00.215Z,38.29
2018-10-12T12:51:30.777Z,37.92
2018-10-12T12:54:01.215Z,38.11
2018-10-12T12:56:31.555Z,38.13
2018-10-12T12:59:01.929Z,38.13
2018-10-12T13:01:32.216Z,38.53
2018-10-12T13:04:02.571Z,38.06
2018-10-12T13:06:33.135Z,38.26
2018-10-12T13:09:04.943Z,38.39
2018-10-12T13:11:35.354Z,38.31
2018-10-12T13:14:05.710Z,37.46
2018-10-12T13:16:36.075Z,38.39
2018-10-12T13:19:06.368Z,38.42
2018-10-12T13:21:36.614Z,37.83
2018-10-12T13:24:06.947Z,38.33
2018-10-12T13:26:37.314Z,37.84
2018-10-12T13:29:08.062Z,38.08
2018-10-12T13:31:38.366Z,37.89
2018-10-12T13:34:08.859Z,38.53
2018-10-12T13:36:39.252Z,37.96
2018-10-12T13:39:12.631Z,38.81
2018-10-12T13:41:42.951Z,38.31
2018-10-12T13:44:13.283Z,38.36
2018-10-12T13:46:44.062Z,39.00
2018-10-12T13:49:15.278Z,38.61
2018-10-12T13:51:45.654Z,37.96
2018-10-12T13:54:16.985Z,37.85
2018-10-12T13:56:47.262Z,37.98
2018-10-12T13:59:17.668Z,37.72
2018-10-12T14:01:48.058Z,37.37
2018-10-12T14:04:18.565Z,37.34
2018-10-12T14:06:48.938Z,37.92
2018-10-12T14:09:19.196Z,37.57
2018-10-12T14:11:49.527Z,37.63
2018-10-12T14:14:19.834Z,37.37
2018-10-12T14:16:50.164Z,37.26
2018-10-12T14:19:21.349Z,37.67
2018-10-12T14:21:51.619Z,37.30
2018-10-12T14:24:22.028Z,37.53
2018-10-12T14:26:52.535Z,37.04
2018-10-12T14:29:22.864Z,36.89
2018-10-12T14:31:53.148Z,36.67
2018-10-12T14:34:23.580Z,36.52
2018-10-12T14:36:53.926Z,36.81
2018-10-12T14:39:24.247Z,36.57
2018-10-12T14:41:54.704Z,36.84
2018-10-12T14:44:25.235Z,36.62
2018-10-12T14:46:55.423Z,36.62
2018-10-12T14:49:25.926Z,36.83
2018-10-12T14:51:56.870Z,37.33
2018-10-12T14:54:27.123Z,36.80
2018-10-12T14:56:57.415Z,37.03
2018-10-12T14:59:27.678Z,36.70
2018-10-12T15:01:58.096Z,36.76
2018-10-12T15:04:28.394Z,37.05
2018-10-12T15:06:58.769Z,37.12
2018-10-12T15:09:29.135Z,36.89
2018-10-12T15:11:59.470Z,37.20
2018-10-12T15:14:53.050Z,36.97
2018-10-12T15:17:23.359Z,36.78
2018-10-12T15:19:53.690Z,36.95
2018-10-12T15:22:23.998Z,36.99
2018-10-12T15:24:54.295Z,36.75
2018-10-12T15:27:24.571Z,36.74
2018-10-12T15:29:54.887Z,37.13
2018-10-12T15:32:26.223Z,37.21
2018-10-12T15:34:57.090Z,37.53
2018-10-12T15:37:27.379Z,37.62
2018-10-12T15:39:57.720Z,37.54
2018-10-12T15:42:27.979Z,37.46
2018-10-12T15:44:58.245Z,37.53
2018-10-12T15:47:28.494Z,38.12
2018-10-12T15:49:58.791Z,37.40
2018-10-12T15:52:29.119Z,38.33
2018-10-12T15:54:59.506Z,37.73
2018-10-12T15:57:31.786Z,37.69
2018-10-12T16:00:02.051Z,38.34
2018-10-12T16:02:32.659Z,38.33
2018-10-12T16:05:04.104Z,37.93
2018-10-12T16:07:34.479Z,37.81
2018-10-12T16:10:04.799Z,38.64
2018-10-12T16:12:36.215Z,38.54
2018-10-12T16:15:06.954Z,38.50
2018-10-12T16:17:37.371Z,38.46
2018-10-12T16:20:07.731Z,38.83
2018-10-12T16:22:38.147Z,38.84
2018-10-12T16:26:03.730Z,38.28
2018-10-12T16:28:34.479Z,39.04
2018-10-12T16:31:05.259Z,38.91
2018-10-12T16:33:35.657Z,38.81
2018-10-12T16:36:06.038Z,38.82
2018-10-12T16:38:36.452Z,39.25
2018-10-12T16:41:07.446Z,38.71
2018-10-12T16:43:37.806Z,39.30
2018-10-12T16:46:11.075Z,39.25
2018-10-12T16:48:41.402Z,39.47
2018-10-12T16:51:11.707Z,39.48
2018-10-12T16:53:42.071Z,39.14
2018-10-12T16:56:12.424Z,39.39
2018-10-12T16:58:42.720Z,39.34
2018-10-12T17:01:13.030Z,39.69
2018-10-12T17:03:43.342Z,40.06
2018-10-12T17:06:13.732Z,39.89
2018-10-12T17:08:44.088Z,39.96
2018-10-12T17:11:18.463Z,39.61
2018-10-12T17:13:48.843Z,40.00
2018-10-12T17:16:19.162Z,39.84
2018-10-12T17:18:49.424Z,40.09
2018-10-12T17:21:19.767Z,40.12
2018-10-12T17:23:50.194Z,40.16
2018-10-12T17:26:20.576Z,39.73
2018-10-12T17:28:50.902Z,39.33
2018-10-12T17:31:21.212Z,39.50
2018-10-12T17:33:51.531Z,39.79
2018-10-12T17:36:21.883Z,40.02
2018-10-12T17:38:53.666Z,40.56
2018-10-12T17:41:24.007Z,40.07
2018-10-12T17:43:54.430Z,40.46
2018-10-12T17:46:24.716Z,41.00
2018-10-12T17:48:55.689Z,40.00
2018-10-12T17:51:26.227Z,40.60
2018-10-12T17:53:56.670Z,40.11
2018-10-12T17:56:27.195Z,40.61
2018-10-12T17:58:57.602Z,40.53
2018-10-12T18:01:28.279Z,40.64
2018-10-12T18:03:58.710Z,40.85
2018-10-12T18:06:29.146Z,40.33
2018-10-12T18:08:59.505Z,40.70
2018-10-12T18:11:29.731Z,39.96
2018-10-12T18:14:00.383Z,40.17
2018-10-12T18:16:37.686Z,40.66
2018-10-12T18:19:08.326Z,40.32
2018-10-12T18:21:38.706Z,40.32
2018-10-12T18:24:09.094Z,41.11
2018-10-12T18:26:40.033Z,40.83
2018-10-12T18:29:10.491Z,41.05
2018-10-12T18:31:40.888Z,40.73
2018-10-12T18:34:11.146Z,40.42
2018-10-12T18:36:41.436Z,39.97
2018-10-12T18:39:12.013Z,40.23
2018-10-12T18:41:42.306Z,39.73
2018-10-12T18:44:12.594Z,40.16
2018-10-12T18:46:42.871Z,40.24
2018-10-12T18:49:13.147Z,39.64
2018-10-12T18:51:43.619Z,40.05
2018-10-12T18:54:13.991Z,39.88
2018-10-12T18:56:44.454Z,39.59
2018-10-12T18:59:14.799Z,39.76
2018-10-12T19:01:45.464Z,39.76
2018-10-12T19:04:19.569Z,39.42
2018-10-12T19:06:49.888Z,39.60
2018-10-12T19:09:21.125Z,40.04
2018-10-12T19:11:51.935Z,39.41
2018-10-12T19:14:22.284Z,39.35
2018-10-12T19:16:53.670Z,39.17
2018-10-12T19:19:24.872Z,39.17
2018-10-12T19:21:55.177Z,39.58
2018-10-12T19:24:25.561Z,39.72
2018-10-12T19:26:55.955Z,40.00
2018-10-12T19:29:26.626Z,39.50
2018-10-12T19:31:57.206Z,39.59
2018-10-12T19:34:27.515Z,39.92
2018-10-12T19:36:57.913Z,40.00
2018-10-12T19:39:28.427Z,39.50
2018-10-12T19:41:58.873Z,39.64
2018-10-12T19:44:30.316Z,39.29
2018-10-12T19:47:00.852Z,39.55
2018-10-12T19:49:31.263Z,39.68
2018-10-12T19:52:01.780Z,39.45
2018-10-12T19:54:32.377Z,39.64
2018-10-12T19:57:02.967Z,39.61
2018-10-12T19:59:33.463Z,39.48
2018-10-12T20:02:03.962Z,39.51
2018-10-12T20:04:34.959Z,40.15
2018-10-12T20:07:05.361Z,40.25
2018-10-12T20:09:35.885Z,39.84
2018-10-12T20:12:06.456Z,40.16
2018-10-12T20:14:36.899Z,39.90
2018-10-12T20:17:07.308Z,40.17
2018-10-12T20:19:37.780Z,40.06
2018-10-12T20:22:10.999Z,40.00
2018-10-12T20:24:41.696Z,39.69
2018-10-12T20:27:12.070Z,40.25
2018-10-12T20:29:42.535Z,39.67
2018-10-12T20:32:12.903Z,39.55
2018-10-12T20:34:43.240Z,40.16
2018-10-12T20:37:13.620Z,40.04
2018-10-12T20:39:44.455Z,40.32
2018-10-12T20:42:14.758Z,39.69
2018-10-12T20:44:45.164Z,40.08
2018-10-12T20:47:15.472Z,39.62
2018-10-12T20:49:45.813Z,39.80
2018-10-12T20:52:16.663Z,40.19
2018-10-12T20:54:47.091Z,40.06
2018-10-12T20:57:18.636Z,39.56
2018-10-12T20:59:49.072Z,39.78
2018-10-12T21:02:19.524Z,40.23
2018-10-12T21:04:50.019Z,40.05
2018-10-12T21:07:20.291Z,39.65
2018-10-12T21:09:50.795Z,40.24
2018-10-12T21:12:21.207Z,39.86
2018-10-12T21:14:51.583Z,40.42
2018-10-12T21:17:21.907Z,40.37
2018-10-12T21:19:53.209Z,39.91
2018-10-12T21:22:23.582Z,40.73
2018-10-12T21:24:53.995Z,40.07
2018-10-12T21:27:24.362Z,39.86
2018-10-12T21:29:54.671Z,40.00
2018-10-12T21:32:25.538Z,40.32
2018-10-12T21:34:56.008Z,40.07
2018-10-12T21:37:26.278Z,39.90
2018-10-12T21:39:56.694Z,40.16
2018-10-12T21:42:26.999Z,40.08
2018-10-12T21:44:57.307Z,39.94
2018-10-12T21:47:27.612Z,40.61
2018-10-12T21:49:58.083Z,40.59
2018-10-12T21:52:28.378Z,40.91
2018-10-12T21:54:58.735Z,40.62
2018-10-12T21:57:29.199Z,40.51
2018-10-12T21:59:59.633Z,41.13
2018-10-12T22:02:29.910Z,40.73
2018-10-12T22:05:00.422Z,41.40
2018-10-12T22:07:30.803Z,41.23
2018-10-12T22:10:01.279Z,40.88
2018-10-12T22:12:31.611Z,40.70
2018-10-12T22:15:01.997Z,41.67
2018-10-12T22:17:33.547Z,40.85
2018-10-12T22:20:03.939Z,41.04
2018-10-12T22:22:34.610Z,41.24
2018-10-12T22:25:04.981Z,41.03
2018-10-12T22:27:35.340Z,40.73
2018-10-12T22:30:06.738Z,41.00
2018-10-12T22:32:37.134Z,41.01
2018-10-12T22:35:07.567Z,41.37
2018-10-12T22:37:37.922Z,41.20
2018-10-12T22:40:08.275Z,41.35
2018-10-12T22:42:38.589Z,40.92
2018-10-12T22:49:28.309Z,41.08
2018-10-12T22:51:58.607Z,41.28
2018-10-12T22:54:28.944Z,41.13
2018-10-12T22:56:59.847Z,41.36
2018-10-12T22:59:30.202Z,40.88
2018-10-12T23:02:00.562Z,40.98
2018-10-12T23:04:30.946Z,41.10
2018-10-12T23:07:01.257Z,41.01
2018-10-12T23:09:31.603Z,40.99
2018-10-12T23:12:01.962Z,41.03
2018-10-12T23:14:32.346Z,41.47
2018-10-12T23:17:02.691Z,41.32
2018-10-12T23:19:33.006Z,41.15
2018-10-12T23:22:04.071Z,41.04
2018-10-12T23:24:34.356Z,40.97
2018-10-12T23:27:04.634Z,41.49
2018-10-12T23:29:34.891Z,40.75
2018-10-12T23:32:05.194Z,41.39
2018-10-12T23:34:35.587Z,41.51
2018-10-12T23:37:06.087Z,40.95
2018-10-12T23:39:36.393Z,41.30
2018-10-12T23:42:06.687Z,41.66
2018-10-12T23:44:37.052Z,40.75
2018-10-12T23:47:07.621Z,41.22
2018-10-12T23:49:37.898Z,41.03
2018-10-12T23:52:08.475Z,41.26
2018-10-12T23:54:38.770Z,41.41
2018-10-12T23:57:09.403Z,40.88
2018-10-12T23:59:39.750Z,41.01
